sensor_id;sensor_type;location;lat;lon;timestamp;P1;durP1;ratioP1;P2;durP2;ratioP2
38427;SDS011;24211;49.980;19.776;2023-08-01T02:54:15;5.57;;;2.20;;
38427;SDS011;24211;49.980;19.776;2023-08-01T02:56:42;4.97;;;2.20;;
38427;SDS011;24211;49.980;19.776;2023-08-01T02:59:10;3.30;;;1.80;;
38427;SDS011;24211;49.980;19.776;2023-08-01T03:01:38;5.63;;;2.22;;
38427;SDS011;24211;49.980;19.776;2023-08-01T03:04:06;5.22;;;2.08;;
38427;SDS011;24211;49.980;19.776;2023-08-01T03:06:33;7.25;;;2.28;;
38427;SDS011;24211;49.980;19.776;2023-08-01T03:09:01;3.42;;;1.90;;
38427;SDS011;24211;49.980;19.776;2023-08-01T03:11:28;5.38;;;1.75;;
38427;SDS011;24211;49.980;19.776;2023-08-01T03:13:55;3.95;;;1.88;;
38427;SDS011;24211;49.980;19.776;2023-08-01T03:16:22;3.60;;;1.85;;
38427;SDS011;24211;49.980;19.776;2023-08-01T03:18:50;3.53;;;1.88;;
38427;SDS011;24211;49.980;19.776;2023-08-01T03:21:17;4.07;;;1.90;;
38427;SDS011;24211;49.980;19.776;2023-08-01T03:23:44;3.35;;;1.90;;
38427;SDS011;24211;49.980;19.776;2023-08-01T03:26:11;3.55;;;1.75;;
38427;SDS011;24211;49.980;19.776;2023-08-01T03:28:39;4.18;;;1.85;;
38427;SDS011;24211;49.980;19.776;2023-08-01T03:31:06;4.22;;;1.92;;
38427;SDS011;24211;49.980;19.776;2023-08-01T03:33:33;3.28;;;1.90;;
38427;SDS011;24211;49.980;19.776;2023-08-01T03:36:01;4.07;;;2.00;;
38427;SDS011;24211;49.980;19.776;2023-08-01T03:38:28;3.83;;;1.90;;
38427;SDS011;24211;49.980;19.776;2023-08-01T03:40:56;5.00;;;1.90;;
38427;SDS011;24211;49.980;19.776;2023-08-01T03:43:23;3.40;;;1.73;;
38427;SDS011;24211;49.980;19.776;2023-08-01T03:45:51;4.43;;;2.10;;
38427;SDS011;24211;49.980;19.776;2023-08-01T03:48:21;3.50;;;1.70;;
38427;SDS011;24211;49.980;19.776;2023-08-01T03:50:49;3.60;;;1.80;;
38427;SDS011;24211;49.980;19.776;2023-08-01T03:53:16;4.18;;;2.05;;
38427;SDS011;24211;49.980;19.776;2023-08-01T03:55:44;3.67;;;1.80;;
38427;SDS011;24211;49.980;19.776;2023-08-01T03:58:11;4.65;;;1.90;;
38427;SDS011;24211;49.980;19.776;2023-08-01T04:00:39;4.95;;;2.00;;
38427;SDS011;24211;49.980;19.776;2023-08-01T04:03:07;3.20;;;1.80;;
38427;SDS011;24211;49.980;19.776;2023-08-01T04:05:34;4.63;;;2.00;;
38427;SDS011;24211;49.980;19.776;2023-08-01T04:08:02;2.95;;;1.60;;
38427;SDS011;24211;49.980;19.776;2023-08-01T04:10:29;6.55;;;1.95;;
38427;SDS011;24211;49.980;19.776;2023-08-01T04:12:57;4.18;;;1.80;;
38427;SDS011;24211;49.980;19.776;2023-08-01T04:15:24;4.85;;;2.13;;
38427;SDS011;24211;49.980;19.776;2023-08-01T04:17:51;4.93;;;1.98;;
38427;SDS011;24211;49.980;19.776;2023-08-01T04:20:19;3.90;;;2.05;;
38427;SDS011;24211;49.980;19.776;2023-08-01T04:22:46;4.88;;;2.00;;
38427;SDS011;24211;49.980;19.776;2023-08-01T04:25:13;5.10;;;2.30;;
38427;SDS011;24211;49.980;19.776;2023-08-01T04:27:41;5.20;;;2.38;;
38427;SDS011;24211;49.980;19.776;2023-08-01T04:30:08;5.45;;;2.33;;
38427;SDS011;24211;49.980;19.776;2023-08-01T04:32:36;4.43;;;2.10;;
38427;SDS011;24211;49.980;19.776;2023-08-01T04:35:03;4.35;;;2.17;;
38427;SDS011;24211;49.980;19.776;2023-08-01T04:37:31;6.07;;;2.35;;
38427;SDS011;24211;49.980;19.776;2023-08-01T04:39:58;5.15;;;2.60;;
38427;SDS011;24211;49.980;19.776;2023-08-01T04:42:26;5.95;;;3.00;;
38427;SDS011;24211;49.980;19.776;2023-08-01T04:44:53;8.30;;;3.00;;
38427;SDS011;24211;49.980;19.776;2023-08-01T04:47:21;7.85;;;2.92;;
38427;SDS011;24211;49.980;19.776;2023-08-01T04:49:48;6.68;;;2.50;;
38427;SDS011;24211;49.980;19.776;2023-08-01T04:52:16;5.88;;;2.70;;
38427;SDS011;24211;49.980;19.776;2023-08-01T04:54:44;5.70;;;2.05;;
38427;SDS011;24211;49.980;19.776;2023-08-01T04:57:11;4.93;;;2.65;;
38427;SDS011;24211;49.980;19.776;2023-08-01T04:59:42;8.68;;;2.80;;
38427;SDS011;24211;49.980;19.776;2023-08-01T05:02:10;5.38;;;2.63;;
38427;SDS011;24211;49.980;19.776;2023-08-01T05:04:39;5.22;;;2.85;;
38427;SDS011;24211;49.980;19.776;2023-08-01T05:07:11;6.80;;;2.70;;
38427;SDS011;24211;49.980;19.776;2023-08-01T05:09:39;5.90;;;2.70;;
38427;SDS011;24211;49.980;19.776;2023-08-01T05:12:07;6.82;;;3.10;;
38427;SDS011;24211;49.980;19.776;2023-08-01T05:14:39;8.15;;;2.70;;
38427;SDS011;24211;49.980;19.776;2023-08-01T05:17:15;6.68;;;2.72;;
38427;SDS011;24211;49.980;19.776;2023-08-01T05:19:43;6.10;;;2.60;;
38427;SDS011;24211;49.980;19.776;2023-08-01T05:22:17;5.13;;;2.53;;
38427;SDS011;24211;49.980;19.776;2023-08-01T05:24:48;6.35;;;2.55;;
38427;SDS011;24211;49.980;19.776;2023-08-01T05:27:15;4.80;;;2.65;;
38427;SDS011;24211;49.980;19.776;2023-08-01T05:29:43;8.18;;;2.53;;
38427;SDS011;24211;49.980;19.776;2023-08-01T05:32:11;5.38;;;2.60;;
38427;SDS011;24211;49.980;19.776;2023-08-01T05:34:38;6.13;;;2.20;;
38427;SDS011;24211;49.980;19.776;2023-08-01T05:37:06;5.72;;;2.30;;
38427;SDS011;24211;49.980;19.776;2023-08-01T05:39:33;7.13;;;2.80;;
38427;SDS011;24211;49.980;19.776;2023-08-01T05:42:00;5.55;;;2.25;;
38427;SDS011;24211;49.980;19.776;2023-08-01T05:44:27;4.70;;;2.20;;
38427;SDS011;24211;49.980;19.776;2023-08-01T05:46:55;5.95;;;2.33;;
38427;SDS011;24211;49.980;19.776;2023-08-01T05:49:22;6.78;;;2.30;;
38427;SDS011;24211;49.980;19.776;2023-08-01T05:51:49;4.97;;;2.17;;
38427;SDS011;24211;49.980;19.776;2023-08-01T05:54:18;5.20;;;2.28;;
38427;SDS011;24211;49.980;19.776;2023-08-01T05:56:45;4.30;;;2.10;;
38427;SDS011;24211;49.980;19.776;2023-08-01T05:59:13;5.78;;;2.30;;
38427;SDS011;24211;49.980;19.776;2023-08-01T06:01:41;5.30;;;2.10;;
38427;SDS011;24211;49.980;19.776;2023-08-01T06:04:08;5.25;;;2.30;;
38427;SDS011;24211;49.980;19.776;2023-08-01T06:06:36;4.38;;;2.00;;
38427;SDS011;24211;49.980;19.776;2023-08-01T06:09:03;5.53;;;2.05;;
38427;SDS011;24211;49.980;19.776;2023-08-01T06:11:30;4.05;;;1.95;;
38427;SDS011;24211;49.980;19.776;2023-08-01T06:14:00;4.15;;;2.08;;
38427;SDS011;24211;49.980;19.776;2023-08-01T06:16:29;4.07;;;1.80;;
38427;SDS011;24211;49.980;19.776;2023-08-01T06:18:56;4.53;;;1.83;;
38427;SDS011;24211;49.980;19.776;2023-08-01T06:21:25;3.78;;;1.90;;
38427;SDS011;24211;49.980;19.776;2023-08-01T06:23:52;5.20;;;1.63;;
38427;SDS011;24211;49.980;19.776;2023-08-01T06:26:19;5.10;;;2.03;;
38427;SDS011;24211;49.980;19.776;2023-08-01T06:28:47;3.85;;;1.67;;
38427;SDS011;24211;49.980;19.776;2023-08-01T06:31:14;3.80;;;1.80;;
38427;SDS011;24211;49.980;19.776;2023-08-01T06:33:41;3.58;;;1.80;;
38427;SDS011;24211;49.980;19.776;2023-08-01T06:36:08;3.90;;;1.73;;
38427;SDS011;24211;49.980;19.776;2023-08-01T06:38:36;4.53;;;1.90;;
38427;SDS011;24211;49.980;19.776;2023-08-01T06:41:04;5.40;;;2.00;;
38427;SDS011;24211;49.980;19.776;2023-08-01T06:43:31;4.40;;;1.90;;
38427;SDS011;24211;49.980;19.776;2023-08-01T06:46:33;3.97;;;1.90;;
38427;SDS011;24211;49.980;19.776;2023-08-01T06:49:02;4.07;;;1.65;;
38427;SDS011;24211;49.980;19.776;2023-08-01T06:51:29;3.05;;;1.60;;
38427;SDS011;24211;49.980;19.776;2023-08-01T06:54:03;3.20;;;1.58;;
38427;SDS011;24211;49.980;19.776;2023-08-01T06:57:01;4.38;;;1.90;;
38427;SDS011;24211;49.980;19.776;2023-08-01T06:59:29;5.57;;;1.77;;
38427;SDS011;24211;49.980;19.776;2023-08-01T07:01:56;2.80;;;1.42;;
38427;SDS011;24211;49.980;19.776;2023-08-01T07:04:23;3.70;;;1.80;;
38427;SDS011;24211;49.980;19.776;2023-08-01T07:06:52;3.58;;;1.77;;
38427;SDS011;24211;49.980;19.776;2023-08-01T07:09:20;3.05;;;1.50;;
38427;SDS011;24211;49.980;19.776;2023-08-01T07:11:48;2.90;;;1.50;;
38427;SDS011;24211;49.980;19.776;2023-08-01T07:14:17;4.88;;;1.70;;
38427;SDS011;24211;49.980;19.776;2023-08-01T07:16:49;2.65;;;1.52;;
38427;SDS011;24211;49.980;19.776;2023-08-01T07:19:16;3.67;;;1.60;;
38427;SDS011;24211;49.980;19.776;2023-08-01T07:22:03;3.38;;;1.48;;
38427;SDS011;24211;49.980;19.776;2023-08-01T07:24:46;2.90;;;1.30;;
38427;SDS011;24211;49.980;19.776;2023-08-01T07:27:14;2.67;;;1.33;;
38427;SDS011;24211;49.980;19.776;2023-08-01T07:29:42;3.05;;;1.50;;
38427;SDS011;24211;49.980;19.776;2023-08-01T07:32:15;3.33;;;1.58;;
38427;SDS011;24211;49.980;19.776;2023-08-01T07:34:58;2.60;;;1.30;;
38427;SDS011;24211;49.980;19.776;2023-08-01T07:37:25;3.03;;;1.50;;
38427;SDS011;24211;49.980;19.776;2023-08-01T07:39:55;3.10;;;1.45;;
38427;SDS011;24211;49.980;19.776;2023-08-01T07:42:34;2.72;;;1.27;;
38427;SDS011;24211;49.980;19.776;2023-08-01T07:45:02;2.97;;;1.25;;
38427;SDS011;24211;49.980;19.776;2023-08-01T07:47:30;2.80;;;1.40;;
38427;SDS011;24211;49.980;19.776;2023-08-01T07:49:57;3.22;;;1.30;;
38427;SDS011;24211;49.980;19.776;2023-08-01T07:52:25;2.80;;;1.42;;
38427;SDS011;24211;49.980;19.776;2023-08-01T07:54:52;2.17;;;1.23;;
38427;SDS011;24211;49.980;19.776;2023-08-01T07:57:22;2.83;;;1.42;;
38427;SDS011;24211;49.980;19.776;2023-08-01T07:59:57;2.17;;;1.20;;
38427;SDS011;24211;49.980;19.776;2023-08-01T08:02:24;2.60;;;1.20;;
38427;SDS011;24211;49.980;19.776;2023-08-01T08:04:52;3.53;;;1.40;;
38427;SDS011;24211;49.980;19.776;2023-08-01T08:07:19;3.20;;;1.50;;
38427;SDS011;24211;49.980;19.776;2023-08-01T08:09:46;2.15;;;1.20;;
38427;SDS011;24211;49.980;19.776;2023-08-01T08:14:45;2.97;;;1.40;;
38427;SDS011;24211;49.980;19.776;2023-08-01T08:17:13;2.88;;;1.40;;
38427;SDS011;24211;49.980;19.776;2023-08-01T08:19:45;2.83;;;1.38;;
38427;SDS011;24211;49.980;19.776;2023-08-01T08:22:12;3.30;;;1.60;;
38427;SDS011;24211;49.980;19.776;2023-08-01T08:24:39;2.65;;;1.40;;
38427;SDS011;24211;49.980;19.776;2023-08-01T08:27:14;2.92;;;1.48;;
38427;SDS011;24211;49.980;19.776;2023-08-01T08:29:41;2.65;;;1.35;;
38427;SDS011;24211;49.980;19.776;2023-08-01T08:32:17;3.15;;;1.50;;
38427;SDS011;24211;49.980;19.776;2023-08-01T08:34:45;2.58;;;1.38;;
38427;SDS011;24211;49.980;19.776;2023-08-01T08:37:26;2.70;;;1.23;;
38427;SDS011;24211;49.980;19.776;2023-08-01T08:39:53;2.50;;;1.30;;
38427;SDS011;24211;49.980;19.776;2023-08-01T08:42:21;3.10;;;1.58;;
38427;SDS011;24211;49.980;19.776;2023-08-01T08:44:49;2.85;;;1.40;;
38427;SDS011;24211;49.980;19.776;2023-08-01T08:47:28;2.80;;;1.30;;
38427;SDS011;24211;49.980;19.776;2023-08-01T08:50:02;2.95;;;1.40;;
38427;SDS011;24211;49.980;19.776;2023-08-01T08:52:31;2.70;;;1.50;;
38427;SDS011;24211;49.980;19.776;2023-08-01T08:54:59;3.45;;;1.45;;
38427;SDS011;24211;49.980;19.776;2023-08-01T08:57:29;3.00;;;1.50;;
38427;SDS011;24211;49.980;19.776;2023-08-01T09:00:02;3.25;;;1.60;;
38427;SDS011;24211;49.980;19.776;2023-08-01T09:02:32;2.42;;;1.33;;
38427;SDS011;24211;49.980;19.776;2023-08-01T09:05:03;2.45;;;1.30;;
38427;SDS011;24211;49.980;19.776;2023-08-01T09:07:31;3.10;;;1.25;;
38427;SDS011;24211;49.980;19.776;2023-08-01T09:10:09;2.42;;;1.27;;
38427;SDS011;24211;49.980;19.776;2023-08-01T09:12:37;3.10;;;1.33;;
38427;SDS011;24211;49.980;19.776;2023-08-01T09:15:14;2.72;;;1.40;;
38427;SDS011;24211;49.980;19.776;2023-08-01T09:17:53;2.15;;;1.27;;
38427;SDS011;24211;49.980;19.776;2023-08-01T09:20:27;2.85;;;1.42;;
38427;SDS011;24211;49.980;19.776;2023-08-01T09:22:55;3.20;;;1.30;;
38427;SDS011;24211;49.980;19.776;2023-08-01T09:25:31;3.28;;;1.30;;
38427;SDS011;24211;49.980;19.776;2023-08-01T09:27:59;2.65;;;1.27;;
38427;SDS011;24211;49.980;19.776;2023-08-01T09:30:27;2.38;;;1.27;;
38427;SDS011;24211;49.980;19.776;2023-08-01T09:35:27;2.92;;;1.42;;
38427;SDS011;24211;49.980;19.776;2023-08-01T09:38:06;2.90;;;1.48;;
38427;SDS011;24211;49.980;19.776;2023-08-01T09:40:37;2.83;;;1.50;;
38427;SDS011;24211;49.980;19.776;2023-08-01T09:43:06;2.55;;;1.23;;
38427;SDS011;24211;49.980;19.776;2023-08-01T09:45:49;3.22;;;1.40;;
38427;SDS011;24211;49.980;19.776;2023-08-01T09:48:36;4.25;;;1.60;;
38427;SDS011;24211;49.980;19.776;2023-08-01T09:51:10;3.60;;;1.67;;
38427;SDS011;24211;49.980;19.776;2023-08-01T09:53:51;3.70;;;1.60;;
38427;SDS011;24211;49.980;19.776;2023-08-01T09:56:23;3.22;;;1.60;;
38427;SDS011;24211;49.980;19.776;2023-08-01T09:58:56;3.03;;;1.52;;
38427;SDS011;24211;49.980;19.776;2023-08-01T10:01:27;3.35;;;1.58;;
38427;SDS011;24211;49.980;19.776;2023-08-01T10:03:59;2.50;;;1.40;;
38427;SDS011;24211;49.980;19.776;2023-08-01T10:06:32;3.28;;;1.60;;
38427;SDS011;24211;49.980;19.776;2023-08-01T10:09:09;3.30;;;1.50;;
38427;SDS011;24211;49.980;19.776;2023-08-01T10:11:37;3.72;;;1.45;;
38427;SDS011;24211;49.980;19.776;2023-08-01T10:14:08;3.38;;;1.55;;
38427;SDS011;24211;49.980;19.776;2023-08-01T10:16:36;4.03;;;1.70;;
38427;SDS011;24211;49.980;19.776;2023-08-01T10:19:06;4.03;;;1.85;;
38427;SDS011;24211;49.980;19.776;2023-08-01T10:21:34;3.53;;;1.90;;
38427;SDS011;24211;49.980;19.776;2023-08-01T10:24:08;4.75;;;2.17;;
38427;SDS011;24211;49.980;19.776;2023-08-01T10:26:37;4.65;;;2.30;;
38427;SDS011;24211;49.980;19.776;2023-08-01T10:29:05;4.85;;;2.20;;
38427;SDS011;24211;49.980;19.776;2023-08-01T10:31:32;4.90;;;2.35;;
38427;SDS011;24211;49.980;19.776;2023-08-01T10:34:06;5.22;;;2.40;;
38427;SDS011;24211;49.980;19.776;2023-08-01T10:36:41;5.40;;;2.53;;
38427;SDS011;24211;49.980;19.776;2023-08-01T10:39:21;5.03;;;2.30;;
38427;SDS011;24211;49.980;19.776;2023-08-01T10:42:01;5.20;;;2.40;;
38427;SDS011;24211;49.980;19.776;2023-08-01T10:44:32;4.80;;;2.40;;
38427;SDS011;24211;49.980;19.776;2023-08-01T10:47:04;5.28;;;2.40;;
38427;SDS011;24211;49.980;19.776;2023-08-01T10:49:36;4.13;;;2.30;;
38427;SDS011;24211;49.980;19.776;2023-08-01T10:54:46;3.58;;;1.98;;
38427;SDS011;24211;49.980;19.776;2023-08-01T10:57:17;3.78;;;2.17;;
38427;SDS011;24211;49.980;19.776;2023-08-01T10:59:45;4.88;;;2.30;;
38427;SDS011;24211;49.980;19.776;2023-08-01T11:02:19;5.20;;;2.35;;
38427;SDS011;24211;49.980;19.776;2023-08-01T11:04:59;6.05;;;2.22;;
38427;SDS011;24211;49.980;19.776;2023-08-01T11:07:31;4.63;;;2.35;;
38427;SDS011;24211;49.980;19.776;2023-08-01T11:10:07;4.10;;;2.22;;
38427;SDS011;24211;49.980;19.776;2023-08-01T11:12:41;5.32;;;2.50;;
38427;SDS011;24211;49.980;19.776;2023-08-01T11:15:14;4.25;;;2.38;;
38427;SDS011;24211;49.980;19.776;2023-08-01T11:17:42;4.88;;;2.40;;
38427;SDS011;24211;49.980;19.776;2023-08-01T11:20:15;5.13;;;2.50;;
38427;SDS011;24211;49.980;19.776;2023-08-01T11:22:55;6.10;;;2.65;;
38427;SDS011;24211;49.980;19.776;2023-08-01T11:25:33;6.80;;;2.58;;
38427;SDS011;24211;49.980;19.776;2023-08-01T11:28:03;6.13;;;2.63;;
38427;SDS011;24211;49.980;19.776;2023-08-01T11:30:52;5.22;;;2.45;;
38427;SDS011;24211;49.980;19.776;2023-08-01T11:33:20;5.93;;;2.15;;
38427;SDS011;24211;49.980;19.776;2023-08-01T11:35:52;6.40;;;2.40;;
38427;SDS011;24211;49.980;19.776;2023-08-01T11:38:25;4.10;;;2.25;;
38427;SDS011;24211;49.980;19.776;2023-08-01T11:40:57;5.97;;;2.20;;
38427;SDS011;24211;49.980;19.776;2023-08-01T11:43:25;5.00;;;2.15;;
38427;SDS011;24211;49.980;19.776;2023-08-01T11:45:55;4.90;;;2.38;;
38427;SDS011;24211;49.980;19.776;2023-08-01T11:48:25;5.93;;;2.30;;
38427;SDS011;24211;49.980;19.776;2023-08-01T11:50:57;4.90;;;2.10;;
38427;SDS011;24211;49.980;19.776;2023-08-01T11:53:28;4.80;;;2.10;;
38427;SDS011;24211;49.980;19.776;2023-08-01T11:55:57;4.50;;;1.90;;
38427;SDS011;24211;49.980;19.776;2023-08-01T11:58:32;4.05;;;1.92;;
38427;SDS011;24211;49.980;19.776;2023-08-01T12:01:04;3.70;;;1.90;;
38427;SDS011;24211;49.980;19.776;2023-08-01T12:03:47;4.05;;;1.95;;
38427;SDS011;24211;49.980;19.776;2023-08-01T12:06:22;4.18;;;2.00;;
38427;SDS011;24211;49.980;19.776;2023-08-01T12:08:51;3.70;;;1.65;;
38427;SDS011;24211;49.980;19.776;2023-08-01T12:11:22;3.78;;;1.80;;
38427;SDS011;24211;49.980;19.776;2023-08-01T12:14:07;3.55;;;1.70;;
38427;SDS011;24211;49.980;19.776;2023-08-01T12:16:48;3.83;;;1.75;;
38427;SDS011;24211;49.980;19.776;2023-08-01T12:19:19;3.33;;;1.70;;
38427;SDS011;24211;49.980;19.776;2023-08-01T12:21:48;2.83;;;1.48;;
38427;SDS011;24211;49.980;19.776;2023-08-01T12:24:16;2.88;;;1.30;;
38427;SDS011;24211;49.980;19.776;2023-08-01T12:26:44;2.92;;;1.45;;
38427;SDS011;24211;49.980;19.776;2023-08-01T12:29:11;3.05;;;1.48;;
38427;SDS011;24211;49.980;19.776;2023-08-01T12:31:39;2.65;;;1.33;;
38427;SDS011;24211;49.980;19.776;2023-08-01T12:34:06;2.70;;;1.30;;
38427;SDS011;24211;49.980;19.776;2023-08-01T12:36:40;2.95;;;1.40;;
38427;SDS011;24211;49.980;19.776;2023-08-01T12:39:07;2.00;;;1.13;;
38427;SDS011;24211;49.980;19.776;2023-08-01T12:41:38;3.47;;;1.50;;
38427;SDS011;24211;49.980;19.776;2023-08-01T12:44:06;2.25;;;1.20;;
38427;SDS011;24211;49.980;19.776;2023-08-01T12:46:33;3.00;;;1.40;;
38427;SDS011;24211;49.980;19.776;2023-08-01T12:49:00;2.63;;;1.20;;
38427;SDS011;24211;49.980;19.776;2023-08-01T12:51:34;2.97;;;1.40;;
38427;SDS011;24211;49.980;19.776;2023-08-01T12:54:01;2.22;;;1.13;;
38427;SDS011;24211;49.980;19.776;2023-08-01T12:56:29;2.90;;;1.20;;
38427;SDS011;24211;49.980;19.776;2023-08-01T12:58:56;2.97;;;1.20;;
38427;SDS011;24211;49.980;19.776;2023-08-01T13:01:24;2.65;;;1.30;;
38427;SDS011;24211;49.980;19.776;2023-08-01T13:03:53;2.00;;;1.15;;
38427;SDS011;24211;49.980;19.776;2023-08-01T13:06:20;2.55;;;1.13;;
38427;SDS011;24211;49.980;19.776;2023-08-01T13:08:48;2.22;;;1.10;;
38427;SDS011;24211;49.980;19.776;2023-08-01T13:11:15;4.00;;;1.48;;
38427;SDS011;24211;49.980;19.776;2023-08-01T13:16:14;2.30;;;1.05;;
38427;SDS011;24211;49.980;19.776;2023-08-01T13:18:42;2.20;;;1.10;;
38427;SDS011;24211;49.980;19.776;2023-08-01T13:21:14;2.50;;;1.08;;
38427;SDS011;24211;49.980;19.776;2023-08-01T13:23:42;2.45;;;1.20;;
38427;SDS011;24211;49.980;19.776;2023-08-01T13:26:09;2.80;;;1.20;;
38427;SDS011;24211;49.980;19.776;2023-08-01T13:28:37;1.88;;;1.10;;
38427;SDS011;24211;49.980;19.776;2023-08-01T13:31:08;2.08;;;1.10;;
38427;SDS011;24211;49.980;19.776;2023-08-01T13:33:43;2.28;;;1.10;;
38427;SDS011;24211;49.980;19.776;2023-08-01T13:36:11;2.80;;;1.05;;
38427;SDS011;24211;49.980;19.776;2023-08-01T13:38:50;3.20;;;1.30;;
38427;SDS011;24211;49.980;19.776;2023-08-01T13:41:18;3.00;;;1.20;;
38427;SDS011;24211;49.980;19.776;2023-08-01T13:43:46;2.10;;;1.10;;
38427;SDS011;24211;49.980;19.776;2023-08-01T13:46:18;2.58;;;1.20;;
38427;SDS011;24211;49.980;19.776;2023-08-01T13:49:10;3.35;;;1.10;;
38427;SDS011;24211;49.980;19.776;2023-08-01T13:51:38;2.67;;;1.20;;
38427;SDS011;24211;49.980;19.776;2023-08-01T13:54:10;2.30;;;1.15;;
38427;SDS011;24211;49.980;19.776;2023-08-01T13:56:37;2.78;;;1.20;;
38427;SDS011;24211;49.980;19.776;2023-08-01T13:59:05;2.90;;;1.50;;
38427;SDS011;24211;49.980;19.776;2023-08-01T14:01:32;2.83;;;1.20;;
38427;SDS011;24211;49.980;19.776;2023-08-01T14:04:07;2.15;;;1.13;;
38427;SDS011;24211;49.980;19.776;2023-08-01T14:06:35;2.63;;;1.20;;
38427;SDS011;24211;49.980;19.776;2023-08-01T14:09:02;2.35;;;1.10;;
38427;SDS011;24211;49.980;19.776;2023-08-01T14:11:30;2.63;;;1.27;;
38427;SDS011;24211;49.980;19.776;2023-08-01T14:13:58;2.30;;;1.10;;
38427;SDS011;24211;49.980;19.776;2023-08-01T14:16:31;2.50;;;1.20;;
38427;SDS011;24211;49.980;19.776;2023-08-01T14:18:59;2.50;;;1.00;;
38427;SDS011;24211;49.980;19.776;2023-08-01T14:21:31;2.38;;;1.23;;
38427;SDS011;24211;49.980;19.776;2023-08-01T14:24:03;2.38;;;1.15;;
38427;SDS011;24211;49.980;19.776;2023-08-01T14:26:35;2.25;;;0.98;;
38427;SDS011;24211;49.980;19.776;2023-08-01T14:29:04;2.47;;;1.10;;
38427;SDS011;24211;49.980;19.776;2023-08-01T14:31:31;2.55;;;1.15;;
38427;SDS011;24211;49.980;19.776;2023-08-01T14:33:59;2.60;;;1.10;;
38427;SDS011;24211;49.980;19.776;2023-08-01T14:36:28;1.95;;;1.00;;
38427;SDS011;24211;49.980;19.776;2023-08-01T14:38:55;2.15;;;1.10;;
38427;SDS011;24211;49.980;19.776;2023-08-01T14:41:30;2.28;;;1.10;;
38427;SDS011;24211;49.980;19.776;2023-08-01T14:44:18;3.15;;;1.23;;
38427;SDS011;24211;49.980;19.776;2023-08-01T14:46:52;2.60;;;1.20;;
38427;SDS011;24211;49.980;19.776;2023-08-01T14:49:22;2.58;;;1.20;;
38427;SDS011;24211;49.980;19.776;2023-08-01T14:51:49;2.97;;;1.35;;
38427;SDS011;24211;49.980;19.776;2023-08-01T14:54:17;2.65;;;1.35;;
38427;SDS011;24211;49.980;19.776;2023-08-01T14:57:05;2.90;;;1.15;;
38427;SDS011;24211;49.980;19.776;2023-08-01T14:59:33;3.00;;;1.30;;
38427;SDS011;24211;49.980;19.776;2023-08-01T15:02:00;2.80;;;1.25;;
38427;SDS011;24211;49.980;19.776;2023-08-01T15:04:28;3.92;;;1.33;;
38427;SDS011;24211;49.980;19.776;2023-08-01T15:06:57;3.55;;;1.30;;
38427;SDS011;24211;49.980;19.776;2023-08-01T15:09:31;2.85;;;1.30;;
38427;SDS011;24211;49.980;19.776;2023-08-01T15:11:58;2.75;;;1.20;;
38427;SDS011;24211;49.980;19.776;2023-08-01T15:14:26;2.70;;;1.17;;
38427;SDS011;24211;49.980;19.776;2023-08-01T15:16:53;3.38;;;1.33;;
38427;SDS011;24211;49.980;19.776;2023-08-01T15:19:22;2.97;;;1.42;;
38427;SDS011;24211;49.980;19.776;2023-08-01T15:21:51;2.50;;;1.27;;
38427;SDS011;24211;49.980;19.776;2023-08-01T15:24:24;3.03;;;1.20;;
38427;SDS011;24211;49.980;19.776;2023-08-01T15:26:51;2.13;;;1.20;;
38427;SDS011;24211;49.980;19.776;2023-08-01T15:29:19;3.30;;;1.30;;
38427;SDS011;24211;49.980;19.776;2023-08-01T15:31:46;3.05;;;1.20;;
38427;SDS011;24211;49.980;19.776;2023-08-01T15:34:13;2.45;;;1.13;;
38427;SDS011;24211;49.980;19.776;2023-08-01T15:36:41;2.60;;;1.30;;
38427;SDS011;24211;49.980;19.776;2023-08-01T15:39:17;2.72;;;1.15;;
38427;SDS011;24211;49.980;19.776;2023-08-01T15:41:45;2.90;;;1.17;;
38427;SDS011;24211;49.980;19.776;2023-08-01T15:44:15;3.22;;;1.42;;
38427;SDS011;24211;49.980;19.776;2023-08-01T15:46:43;2.97;;;1.20;;
38427;SDS011;24211;49.980;19.776;2023-08-01T15:49:18;2.40;;;1.00;;
38427;SDS011;24211;49.980;19.776;2023-08-01T15:51:45;2.72;;;1.30;;
38427;SDS011;24211;49.980;19.776;2023-08-01T15:54:12;2.53;;;1.20;;
38427;SDS011;24211;49.980;19.776;2023-08-01T15:56:40;2.42;;;1.05;;
38427;SDS011;24211;49.980;19.776;2023-08-01T15:59:11;2.90;;;1.17;;
38427;SDS011;24211;49.980;19.776;2023-08-01T16:01:38;2.38;;;1.15;;
38427;SDS011;24211;49.980;19.776;2023-08-01T16:04:05;2.60;;;1.10;;
38427;SDS011;24211;49.980;19.776;2023-08-01T16:06:38;1.92;;;0.85;;
38427;SDS011;24211;49.980;19.776;2023-08-01T16:09:06;1.92;;;1.08;;
38427;SDS011;24211;49.980;19.776;2023-08-01T16:11:35;2.45;;;1.10;;
38427;SDS011;24211;49.980;19.776;2023-08-01T16:14:03;2.00;;;1.00;;
38427;SDS011;24211;49.980;19.776;2023-08-01T16:16:33;2.13;;;1.00;;
38427;SDS011;24211;49.980;19.776;2023-08-01T16:19:02;4.10;;;1.10;;
38427;SDS011;24211;49.980;19.776;2023-08-01T16:21:29;2.25;;;1.00;;
38427;SDS011;24211;49.980;19.776;2023-08-01T16:23:56;2.42;;;1.15;;
38427;SDS011;24211;49.980;19.776;2023-08-01T16:26:28;2.65;;;1.10;;
38427;SDS011;24211;49.980;19.776;2023-08-01T16:28:56;2.25;;;1.10;;
38427;SDS011;24211;49.980;19.776;2023-08-01T16:31:23;2.90;;;1.30;;
38427;SDS011;24211;49.980;19.776;2023-08-01T16:33:53;2.25;;;0.95;;
38427;SDS011;24211;49.980;19.776;2023-08-01T16:36:20;2.67;;;1.10;;
38427;SDS011;24211;49.980;19.776;2023-08-01T16:38:50;1.92;;;1.10;;
38427;SDS011;24211;49.980;19.776;2023-08-01T16:41:17;2.35;;;1.00;;
38427;SDS011;24211;49.980;19.776;2023-08-01T16:43:48;2.90;;;1.00;;
38427;SDS011;24211;49.980;19.776;2023-08-01T16:46:15;2.40;;;1.00;;
38427;SDS011;24211;49.980;19.776;2023-08-01T16:48:48;2.75;;;1.10;;
38427;SDS011;24211;49.980;19.776;2023-08-01T16:51:32;2.08;;;0.85;;
38427;SDS011;24211;49.980;19.776;2023-08-01T16:54:07;2.25;;;1.13;;
38427;SDS011;24211;49.980;19.776;2023-08-01T16:56:34;2.00;;;0.90;;
38427;SDS011;24211;49.980;19.776;2023-08-01T16:59:08;1.88;;;0.90;;
38427;SDS011;24211;49.980;19.776;2023-08-01T17:01:35;2.55;;;1.10;;
38427;SDS011;24211;49.980;19.776;2023-08-01T17:04:03;1.83;;;0.82;;
38427;SDS011;24211;49.980;19.776;2023-08-01T17:06:39;2.67;;;1.00;;
38427;SDS011;24211;49.980;19.776;2023-08-01T17:09:07;2.78;;;1.10;;
38427;SDS011;24211;49.980;19.776;2023-08-01T17:11:37;2.88;;;1.10;;
38427;SDS011;24211;49.980;19.776;2023-08-01T17:14:06;2.45;;;1.00;;
38427;SDS011;24211;49.980;19.776;2023-08-01T17:16:41;1.77;;;0.80;;
38427;SDS011;24211;49.980;19.776;2023-08-01T17:19:11;2.22;;;0.95;;
38427;SDS011;24211;49.980;19.776;2023-08-01T17:21:45;1.55;;;0.80;;
38427;SDS011;24211;49.980;19.776;2023-08-01T17:24:17;2.13;;;1.00;;
38427;SDS011;24211;49.980;19.776;2023-08-01T17:26:45;2.10;;;0.95;;
38427;SDS011;24211;49.980;19.776;2023-08-01T17:29:20;2.00;;;0.90;;
38427;SDS011;24211;49.980;19.776;2023-08-01T17:31:53;2.50;;;1.10;;
38427;SDS011;24211;49.980;19.776;2023-08-01T17:34:21;2.17;;;0.90;;
38427;SDS011;24211;49.980;19.776;2023-08-01T17:36:48;2.60;;;1.05;;
38427;SDS011;24211;49.980;19.776;2023-08-01T17:39:15;1.70;;;0.90;;
38427;SDS011;24211;49.980;19.776;2023-08-01T17:41:57;2.20;;;0.88;;
38427;SDS011;24211;49.980;19.776;2023-08-01T17:44:35;2.22;;;0.93;;
38427;SDS011;24211;49.980;19.776;2023-08-01T17:47:07;3.15;;;1.02;;
38427;SDS011;24211;49.980;19.776;2023-08-01T17:49:35;1.90;;;0.90;;
38427;SDS011;24211;49.980;19.776;2023-08-01T17:52:03;1.85;;;0.95;;
38427;SDS011;24211;49.980;19.776;2023-08-01T17:58:00;2.05;;;1.00;;